Saturday, December 20, 2008

Weather in Guatemala

December 12, 2008. Actual conditions:



22°C
Guatemala La Aurora, Guatemala

El informe se hizo hace 15 minutos, a las 19:00 UTC. El viento soplaba a una velocidad de 5.1 m/s (11.5 millas por hora) del norte (360°). La temperatura era 22 °C (72 °F), con un punto de rocío de 12 °C (54 °F). La sensación térmica era de 25 °C (77 °F). La presión atmosférica era 1025 hPa (30.27 inHg). Había una humedad relativa del 53.0%. En cuanto a la nubosidad, algunas nubes a una altitud de 610 metros (2000 pies). En aquel momento la visibilidad global era mayor de 10 kilómetros (6.2 millas).

MGGT 201900Z 36010KT 9999 FEW020 22/12 Q1025 A3027


http://climaya.com/

Rough translation with BabelFish.yahoo.com:

The report became 15 minutes ago, to 19:00 UTC. The wind blew to a speed of 5,1 m/s (11,5 miles per hour) of the north (360°). The temperature was 22 °C (72 °F), with a dew point of 12 °C (54 °F). The thermal sensation was of 25 °C (77 °F). The atmospheric pressure era 1025 hPa (30,27 inHg). There was a relative humidity of the 53,0%. As far as the cloudiness, some clouds to an altitude of 610 meters (2000 feet). At that time the global visibility was greater of 10 kilometers (6,2 miles).

No comments:

Panajachel, Lake Atitlan, Guatemala

Panajachel, Lake Atitlan, Guatemala
View of Lake Atitlan and volcano from my apartment balcony in Panajachel. Taken by Catherine Todd June 2008.